sensor_id;sensor_type;location;lat;lon;timestamp;P1;durP1;ratioP1;P2;durP2;ratioP2
83263;SDS011;73156;50.988;11.034;2024-01-30T00:00:14;16.27;;;9.73;;
83263;SDS011;73156;50.988;11.034;2024-01-30T00:02:39;14.48;;;9.18;;
83263;SDS011;73156;50.988;11.034;2024-01-30T00:05:05;17.27;;;9.80;;
83263;SDS011;73156;50.988;11.034;2024-01-30T00:07:30;16.15;;;9.38;;
83263;SDS011;73156;50.988;11.034;2024-01-30T00:09:55;17.53;;;9.60;;
83263;SDS011;73156;50.988;11.034;2024-01-30T00:12:20;17.17;;;9.63;;
83263;SDS011;73156;50.988;11.034;2024-01-30T00:14:46;19.60;;;10.13;;
83263;SDS011;73156;50.988;11.034;2024-01-30T00:17:11;16.53;;;10.33;;
83263;SDS011;73156;50.988;11.034;2024-01-30T00:19:36;17.83;;;10.00;;
83263;SDS011;73156;50.988;11.034;2024-01-30T00:22:01;18.70;;;10.80;;
83263;SDS011;73156;50.988;11.034;2024-01-30T00:24:27;18.90;;;10.27;;
83263;SDS011;73156;50.988;11.034;2024-01-30T00:26:52;17.83;;;9.73;;
83263;SDS011;73156;50.988;11.034;2024-01-30T00:29:17;19.13;;;10.97;;
83263;SDS011;73156;50.988;11.034;2024-01-30T00:31:44;18.17;;;9.90;;
83263;SDS011;73156;50.988;11.034;2024-01-30T00:34:10;16.73;;;10.15;;
83263;SDS011;73156;50.988;11.034;2024-01-30T00:36:36;17.48;;;10.45;;
83263;SDS011;73156;50.988;11.034;2024-01-30T00:39:02;17.55;;;10.63;;
83263;SDS011;73156;50.988;11.034;2024-01-30T00:41:31;17.33;;;9.55;;
83263;SDS011;73156;50.988;11.034;2024-01-30T00:43:56;19.03;;;10.07;;
83263;SDS011;73156;50.988;11.034;2024-01-30T00:46:21;19.43;;;10.87;;
83263;SDS011;73156;50.988;11.034;2024-01-30T00:48:46;16.17;;;9.47;;
83263;SDS011;73156;50.988;11.034;2024-01-30T00:51:12;19.17;;;10.13;;
83263;SDS011;73156;50.988;11.034;2024-01-30T00:53:37;16.67;;;10.00;;
83263;SDS011;73156;50.988;11.034;2024-01-30T00:56:02;17.03;;;10.10;;
83263;SDS011;73156;50.988;11.034;2024-01-30T00:58:28;18.02;;;10.48;;
83263;SDS011;73156;50.988;11.034;2024-01-30T01:00:53;19.30;;;9.90;;
83263;SDS011;73156;50.988;11.034;2024-01-30T01:03:18;18.47;;;10.40;;
83263;SDS011;73156;50.988;11.034;2024-01-30T01:05:44;18.48;;;10.95;;
83263;SDS011;73156;50.988;11.034;2024-01-30T01:08:09;18.37;;;11.23;;
83263;SDS011;73156;50.988;11.034;2024-01-30T01:10:35;17.33;;;10.33;;
83263;SDS011;73156;50.988;11.034;2024-01-30T01:13:00;18.70;;;9.20;;
83263;SDS011;73156;50.988;11.034;2024-01-30T01:15:25;17.73;;;10.30;;
83263;SDS011;73156;50.988;11.034;2024-01-30T01:17:50;16.50;;;9.93;;
83263;SDS011;73156;50.988;11.034;2024-01-30T01:20:16;17.30;;;9.43;;
83263;SDS011;73156;50.988;11.034;2024-01-30T01:22:41;19.10;;;10.27;;
83263;SDS011;73156;50.988;11.034;2024-01-30T01:25:06;18.40;;;11.00;;
83263;SDS011;73156;50.988;11.034;2024-01-30T01:27:33;20.38;;;11.63;;
83263;SDS011;73156;50.988;11.034;2024-01-30T01:29:59;16.63;;;10.00;;
83263;SDS011;73156;50.988;11.034;2024-01-30T01:32:24;19.63;;;9.93;;
83263;SDS011;73156;50.988;11.034;2024-01-30T01:34:49;19.90;;;11.30;;
83263;SDS011;73156;50.988;11.034;2024-01-30T01:37:15;18.67;;;11.80;;
83263;SDS011;73156;50.988;11.034;2024-01-30T01:39:40;17.60;;;10.63;;
83263;SDS011;73156;50.988;11.034;2024-01-30T01:42:05;18.13;;;10.13;;
83263;SDS011;73156;50.988;11.034;2024-01-30T01:44:31;19.27;;;11.27;;
83263;SDS011;73156;50.988;11.034;2024-01-30T01:46:56;19.53;;;10.87;;
83263;SDS011;73156;50.988;11.034;2024-01-30T01:49:25;18.77;;;11.25;;
83263;SDS011;73156;50.988;11.034;2024-01-30T01:51:54;19.02;;;10.38;;
83263;SDS011;73156;50.988;11.034;2024-01-30T01:54:23;19.80;;;11.90;;
83263;SDS011;73156;50.988;11.034;2024-01-30T01:59:17;20.25;;;11.57;;
83263;SDS011;73156;50.988;11.034;2024-01-30T02:01:43;20.83;;;11.07;;
83263;SDS011;73156;50.988;11.034;2024-01-30T02:04:10;18.15;;;11.05;;
83263;SDS011;73156;50.988;11.034;2024-01-30T02:06:36;21.60;;;12.07;;
83263;SDS011;73156;50.988;11.034;2024-01-30T02:09:02;21.55;;;11.25;;
83263;SDS011;73156;50.988;11.034;2024-01-30T02:11:29;21.58;;;11.77;;
83263;SDS011;73156;50.988;11.034;2024-01-30T02:13:55;21.42;;;12.23;;
83263;SDS011;73156;50.988;11.034;2024-01-30T02:16:20;21.40;;;12.13;;
83263;SDS011;73156;50.988;11.034;2024-01-30T02:18:45;19.53;;;12.37;;
83263;SDS011;73156;50.988;11.034;2024-01-30T02:21:14;20.98;;;11.98;;
83263;SDS011;73156;50.988;11.034;2024-01-30T02:26:07;22.13;;;12.95;;
83263;SDS011;73156;50.988;11.034;2024-01-30T02:28:32;20.50;;;12.10;;
83263;SDS011;73156;50.988;11.034;2024-01-30T02:30:57;22.67;;;12.97;;
83263;SDS011;73156;50.988;11.034;2024-01-30T02:33:22;22.80;;;11.83;;
83263;SDS011;73156;50.988;11.034;2024-01-30T02:35:48;22.00;;;12.83;;
83263;SDS011;73156;50.988;11.034;2024-01-30T02:38:13;21.33;;;12.60;;
83263;SDS011;73156;50.988;11.034;2024-01-30T02:40:38;20.30;;;12.57;;
83263;SDS011;73156;50.988;11.034;2024-01-30T02:43:03;21.77;;;13.10;;
83263;SDS011;73156;50.988;11.034;2024-01-30T02:45:29;21.87;;;12.90;;
83263;SDS011;73156;50.988;11.034;2024-01-30T02:47:54;20.77;;;11.60;;
83263;SDS011;73156;50.988;11.034;2024-01-30T02:50:19;22.53;;;13.37;;
83263;SDS011;73156;50.988;11.034;2024-01-30T02:52:44;22.73;;;11.90;;
83263;SDS011;73156;50.988;11.034;2024-01-30T02:55:10;21.33;;;12.00;;
83263;SDS011;73156;50.988;11.034;2024-01-30T02:57:35;21.27;;;12.45;;
83263;SDS011;73156;50.988;11.034;2024-01-30T03:00:01;23.92;;;13.57;;
83263;SDS011;73156;50.988;11.034;2024-01-30T03:02:27;23.30;;;13.32;;
83263;SDS011;73156;50.988;11.034;2024-01-30T03:04:53;22.63;;;13.20;;
83263;SDS011;73156;50.988;11.034;2024-01-30T03:07:18;21.38;;;13.18;;
83263;SDS011;73156;50.988;11.034;2024-01-30T03:09:43;23.93;;;14.10;;
83263;SDS011;73156;50.988;11.034;2024-01-30T03:12:09;24.20;;;13.60;;
83263;SDS011;73156;50.988;11.034;2024-01-30T03:14:35;23.17;;;13.98;;
83263;SDS011;73156;50.988;11.034;2024-01-30T03:17:00;23.63;;;13.38;;
83263;SDS011;73156;50.988;11.034;2024-01-30T03:19:25;25.63;;;12.47;;
83263;SDS011;73156;50.988;11.034;2024-01-30T03:21:50;21.63;;;12.77;;
83263;SDS011;73156;50.988;11.034;2024-01-30T03:24:16;23.65;;;13.35;;
83263;SDS011;73156;50.988;11.034;2024-01-30T03:26:42;20.80;;;13.18;;
83263;SDS011;73156;50.988;11.034;2024-01-30T03:29:07;19.67;;;13.27;;
83263;SDS011;73156;50.988;11.034;2024-01-30T03:31:32;23.08;;;13.65;;
83263;SDS011;73156;50.988;11.034;2024-01-30T03:33:58;21.90;;;12.80;;
83263;SDS011;73156;50.988;11.034;2024-01-30T03:36:23;25.40;;;14.00;;
83263;SDS011;73156;50.988;11.034;2024-01-30T03:38:48;23.90;;;13.67;;
83263;SDS011;73156;50.988;11.034;2024-01-30T03:41:13;25.47;;;14.70;;
83263;SDS011;73156;50.988;11.034;2024-01-30T03:43:39;24.97;;;13.87;;
83263;SDS011;73156;50.988;11.034;2024-01-30T03:46:04;27.23;;;14.27;;
83263;SDS011;73156;50.988;11.034;2024-01-30T03:48:29;22.08;;;12.45;;
83263;SDS011;73156;50.988;11.034;2024-01-30T03:50:55;24.27;;;14.20;;
83263;SDS011;73156;50.988;11.034;2024-01-30T03:53:20;23.45;;;13.98;;
83263;SDS011;73156;50.988;11.034;2024-01-30T03:55:45;24.65;;;13.88;;
83263;SDS011;73156;50.988;11.034;2024-01-30T03:58:11;26.40;;;14.10;;
83263;SDS011;73156;50.988;11.034;2024-01-30T04:00:36;22.33;;;13.45;;
83263;SDS011;73156;50.988;11.034;2024-01-30T04:03:02;21.53;;;12.47;;
83263;SDS011;73156;50.988;11.034;2024-01-30T04:05:27;22.42;;;14.00;;
83263;SDS011;73156;50.988;11.034;2024-01-30T04:07:52;22.43;;;13.03;;
83263;SDS011;73156;50.988;11.034;2024-01-30T04:10:18;23.65;;;13.10;;
83263;SDS011;73156;50.988;11.034;2024-01-30T04:12:43;21.83;;;12.77;;
83263;SDS011;73156;50.988;11.034;2024-01-30T04:15:08;22.07;;;12.33;;
83263;SDS011;73156;50.988;11.034;2024-01-30T04:17:34;20.48;;;12.00;;
83263;SDS011;73156;50.988;11.034;2024-01-30T04:19:59;22.97;;;12.10;;
83263;SDS011;73156;50.988;11.034;2024-01-30T04:22:24;18.80;;;11.47;;
83263;SDS011;73156;50.988;11.034;2024-01-30T04:24:49;20.40;;;11.60;;
83263;SDS011;73156;50.988;11.034;2024-01-30T04:27:14;19.23;;;10.83;;
83263;SDS011;73156;50.988;11.034;2024-01-30T04:29:40;20.07;;;11.10;;
83263;SDS011;73156;50.988;11.034;2024-01-30T04:32:05;18.77;;;11.03;;
83263;SDS011;73156;50.988;11.034;2024-01-30T04:34:31;21.27;;;11.65;;
83263;SDS011;73156;50.988;11.034;2024-01-30T04:36:56;20.43;;;11.30;;
83263;SDS011;73156;50.988;11.034;2024-01-30T04:39:21;19.70;;;11.52;;
83263;SDS011;73156;50.988;11.034;2024-01-30T04:41:47;19.83;;;11.00;;
83263;SDS011;73156;50.988;11.034;2024-01-30T04:44:13;20.50;;;10.63;;
83263;SDS011;73156;50.988;11.034;2024-01-30T04:46:38;19.37;;;10.93;;
83263;SDS011;73156;50.988;11.034;2024-01-30T04:49:04;20.27;;;11.45;;
83263;SDS011;73156;50.988;11.034;2024-01-30T04:51:29;20.53;;;10.90;;
83263;SDS011;73156;50.988;11.034;2024-01-30T04:53:54;19.75;;;11.73;;
83263;SDS011;73156;50.988;11.034;2024-01-30T04:56:20;19.57;;;11.13;;
83263;SDS011;73156;50.988;11.034;2024-01-30T04:58:45;18.93;;;11.87;;
83263;SDS011;73156;50.988;11.034;2024-01-30T05:01:14;18.93;;;10.37;;
83263;SDS011;73156;50.988;11.034;2024-01-30T05:03:40;21.02;;;11.57;;
83263;SDS011;73156;50.988;11.034;2024-01-30T05:06:05;18.07;;;11.23;;
83263;SDS011;73156;50.988;11.034;2024-01-30T05:08:30;14.10;;;9.55;;
83263;SDS011;73156;50.988;11.034;2024-01-30T05:10:56;16.35;;;10.15;;
83263;SDS011;73156;50.988;11.034;2024-01-30T05:13:21;17.67;;;10.40;;
83263;SDS011;73156;50.988;11.034;2024-01-30T05:15:46;19.70;;;9.73;;
83263;SDS011;73156;50.988;11.034;2024-01-30T05:18:11;18.67;;;10.30;;
83263;SDS011;73156;50.988;11.034;2024-01-30T05:20:37;19.13;;;10.83;;
83263;SDS011;73156;50.988;11.034;2024-01-30T05:23:02;17.60;;;10.33;;
83263;SDS011;73156;50.988;11.034;2024-01-30T05:25:27;19.13;;;9.85;;
83263;SDS011;73156;50.988;11.034;2024-01-30T05:27:52;17.23;;;10.20;;
83263;SDS011;73156;50.988;11.034;2024-01-30T05:30:18;19.33;;;10.40;;
83263;SDS011;73156;50.988;11.034;2024-01-30T05:32:43;18.77;;;9.60;;
83263;SDS011;73156;50.988;11.034;2024-01-30T05:35:08;17.30;;;9.87;;
83263;SDS011;73156;50.988;11.034;2024-01-30T05:37:33;16.47;;;9.87;;
83263;SDS011;73156;50.988;11.034;2024-01-30T05:39:59;17.60;;;10.10;;
83263;SDS011;73156;50.988;11.034;2024-01-30T05:42:24;19.77;;;10.13;;
83263;SDS011;73156;50.988;11.034;2024-01-30T05:44:50;18.08;;;10.48;;
83263;SDS011;73156;50.988;11.034;2024-01-30T05:47:15;19.58;;;11.10;;
83263;SDS011;73156;50.988;11.034;2024-01-30T05:49:40;19.77;;;11.63;;
83263;SDS011;73156;50.988;11.034;2024-01-30T05:52:06;17.73;;;9.68;;
83263;SDS011;73156;50.988;11.034;2024-01-30T05:54:31;20.00;;;11.17;;
83263;SDS011;73156;50.988;11.034;2024-01-30T05:56:56;18.70;;;11.33;;
83263;SDS011;73156;50.988;11.034;2024-01-30T05:59:21;19.93;;;11.57;;
83263;SDS011;73156;50.988;11.034;2024-01-30T06:01:47;18.57;;;10.37;;
83263;SDS011;73156;50.988;11.034;2024-01-30T06:04:12;19.65;;;10.63;;
83263;SDS011;73156;50.988;11.034;2024-01-30T06:06:38;20.20;;;11.00;;
83263;SDS011;73156;50.988;11.034;2024-01-30T06:09:03;20.17;;;11.43;;
83263;SDS011;73156;50.988;11.034;2024-01-30T06:11:28;18.63;;;11.43;;
83263;SDS011;73156;50.988;11.034;2024-01-30T06:13:54;20.27;;;10.97;;
83263;SDS011;73156;50.988;11.034;2024-01-30T06:16:19;19.83;;;10.77;;
83263;SDS011;73156;50.988;11.034;2024-01-30T06:18:46;20.55;;;11.32;;
83263;SDS011;73156;50.988;11.034;2024-01-30T06:21:11;20.85;;;11.65;;
83263;SDS011;73156;50.988;11.034;2024-01-30T06:23:36;20.23;;;10.50;;
83263;SDS011;73156;50.988;11.034;2024-01-30T06:26:02;22.33;;;11.37;;
83263;SDS011;73156;50.988;11.034;2024-01-30T06:28:27;21.93;;;11.60;;
83263;SDS011;73156;50.988;11.034;2024-01-30T06:30:52;20.07;;;11.07;;
83263;SDS011;73156;50.988;11.034;2024-01-30T06:33:17;22.20;;;11.47;;
83263;SDS011;73156;50.988;11.034;2024-01-30T06:35:42;21.80;;;11.50;;
83263;SDS011;73156;50.988;11.034;2024-01-30T06:38:08;19.20;;;10.77;;
83263;SDS011;73156;50.988;11.034;2024-01-30T06:40:34;20.92;;;11.88;;
83263;SDS011;73156;50.988;11.034;2024-01-30T06:42:59;19.93;;;11.03;;
83263;SDS011;73156;50.988;11.034;2024-01-30T06:45:24;20.10;;;11.00;;
83263;SDS011;73156;50.988;11.034;2024-01-30T06:47:49;20.50;;;11.47;;
83263;SDS011;73156;50.988;11.034;2024-01-30T06:50:15;21.50;;;11.60;;
83263;SDS011;73156;50.988;11.034;2024-01-30T06:52:40;20.23;;;11.73;;
83263;SDS011;73156;50.988;11.034;2024-01-30T06:55:05;19.40;;;11.33;;
83263;SDS011;73156;50.988;11.034;2024-01-30T06:57:31;23.40;;;12.82;;
83263;SDS011;73156;50.988;11.034;2024-01-30T06:59:56;21.65;;;12.63;;
83263;SDS011;73156;50.988;11.034;2024-01-30T07:02:21;24.00;;;12.43;;
83263;SDS011;73156;50.988;11.034;2024-01-30T07:04:47;21.30;;;12.27;;
83263;SDS011;73156;50.988;11.034;2024-01-30T07:07:12;23.43;;;11.57;;
83263;SDS011;73156;50.988;11.034;2024-01-30T07:09:38;22.23;;;11.23;;
83263;SDS011;73156;50.988;11.034;2024-01-30T07:12:04;23.95;;;12.02;;
83263;SDS011;73156;50.988;11.034;2024-01-30T07:14:29;21.98;;;12.18;;
83263;SDS011;73156;50.988;11.034;2024-01-30T07:16:54;21.70;;;12.30;;
83263;SDS011;73156;50.988;11.034;2024-01-30T07:19:20;24.77;;;13.07;;
83263;SDS011;73156;50.988;11.034;2024-01-30T07:21:45;23.70;;;13.00;;
83263;SDS011;73156;50.988;11.034;2024-01-30T07:24:11;22.08;;;12.88;;
83263;SDS011;73156;50.988;11.034;2024-01-30T07:26:36;25.47;;;12.77;;
83263;SDS011;73156;50.988;11.034;2024-01-30T07:29:01;24.08;;;12.77;;
83263;SDS011;73156;50.988;11.034;2024-01-30T07:31:27;23.90;;;12.52;;
83263;SDS011;73156;50.988;11.034;2024-01-30T07:33:52;20.40;;;11.93;;
83263;SDS011;73156;50.988;11.034;2024-01-30T07:36:18;25.85;;;13.40;;
83263;SDS011;73156;50.988;11.034;2024-01-30T07:38:43;25.63;;;13.57;;
83263;SDS011;73156;50.988;11.034;2024-01-30T07:41:08;23.43;;;11.83;;
83263;SDS011;73156;50.988;11.034;2024-01-30T07:43:33;29.27;;;14.97;;
83263;SDS011;73156;50.988;11.034;2024-01-30T07:45:59;23.98;;;12.88;;
83263;SDS011;73156;50.988;11.034;2024-01-30T07:48:25;23.52;;;13.07;;
83263;SDS011;73156;50.988;11.034;2024-01-30T07:50:51;23.77;;;12.97;;
83263;SDS011;73156;50.988;11.034;2024-01-30T07:53:16;25.07;;;13.57;;
83263;SDS011;73156;50.988;11.034;2024-01-30T07:55:41;24.23;;;12.63;;
83263;SDS011;73156;50.988;11.034;2024-01-30T07:58:09;25.88;;;13.38;;
83263;SDS011;73156;50.988;11.034;2024-01-30T08:00:35;24.58;;;14.30;;
83263;SDS011;73156;50.988;11.034;2024-01-30T08:03:00;23.77;;;13.25;;
83263;SDS011;73156;50.988;11.034;2024-01-30T08:05:25;23.83;;;14.00;;
83263;SDS011;73156;50.988;11.034;2024-01-30T08:07:51;23.77;;;13.52;;
83263;SDS011;73156;50.988;11.034;2024-01-30T08:10:16;22.13;;;12.85;;
83263;SDS011;73156;50.988;11.034;2024-01-30T08:12:44;23.83;;;13.13;;
83263;SDS011;73156;50.988;11.034;2024-01-30T08:15:10;24.67;;;12.90;;
83263;SDS011;73156;50.988;11.034;2024-01-30T08:17:37;23.50;;;12.57;;
83263;SDS011;73156;50.988;11.034;2024-01-30T08:20:02;25.30;;;13.77;;
83263;SDS011;73156;50.988;11.034;2024-01-30T08:22:29;24.80;;;12.57;;
83263;SDS011;73156;50.988;11.034;2024-01-30T08:24:54;23.23;;;13.32;;
83263;SDS011;73156;50.988;11.034;2024-01-30T08:27:20;23.13;;;12.23;;
83263;SDS011;73156;50.988;11.034;2024-01-30T08:29:45;24.27;;;13.27;;
83263;SDS011;73156;50.988;11.034;2024-01-30T08:32:10;23.73;;;13.53;;
83263;SDS011;73156;50.988;11.034;2024-01-30T08:34:35;25.03;;;13.50;;
83263;SDS011;73156;50.988;11.034;2024-01-30T08:37:00;24.37;;;12.90;;
83263;SDS011;73156;50.988;11.034;2024-01-30T08:39:26;24.00;;;13.47;;
83263;SDS011;73156;50.988;11.034;2024-01-30T08:41:51;26.07;;;14.10;;
83263;SDS011;73156;50.988;11.034;2024-01-30T08:44:16;24.77;;;13.45;;
83263;SDS011;73156;50.988;11.034;2024-01-30T08:46:42;23.45;;;13.73;;
83263;SDS011;73156;50.988;11.034;2024-01-30T08:49:09;26.85;;;14.50;;
83263;SDS011;73156;50.988;11.034;2024-01-30T08:51:34;24.20;;;13.47;;
83263;SDS011;73156;50.988;11.034;2024-01-30T08:54:00;24.97;;;13.93;;
83263;SDS011;73156;50.988;11.034;2024-01-30T08:56:26;25.15;;;13.90;;
83263;SDS011;73156;50.988;11.034;2024-01-30T08:58:51;24.75;;;12.63;;
83263;SDS011;73156;50.988;11.034;2024-01-30T09:01:17;26.37;;;14.77;;
83263;SDS011;73156;50.988;11.034;2024-01-30T09:03:42;27.27;;;14.10;;
83263;SDS011;73156;50.988;11.034;2024-01-30T09:06:10;27.90;;;14.20;;
83263;SDS011;73156;50.988;11.034;2024-01-30T09:08:35;25.65;;;14.77;;
83263;SDS011;73156;50.988;11.034;2024-01-30T09:11:01;25.37;;;13.40;;
83263;SDS011;73156;50.988;11.034;2024-01-30T09:13:27;26.70;;;13.93;;
83263;SDS011;73156;50.988;11.034;2024-01-30T09:15:52;31.07;;;14.77;;
83263;SDS011;73156;50.988;11.034;2024-01-30T09:18:18;29.85;;;14.93;;
83263;SDS011;73156;50.988;11.034;2024-01-30T09:20:43;28.75;;;14.85;;
83263;SDS011;73156;50.988;11.034;2024-01-30T09:23:10;25.90;;;13.70;;
83263;SDS011;73156;50.988;11.034;2024-01-30T09:25:35;24.83;;;14.43;;
83263;SDS011;73156;50.988;11.034;2024-01-30T09:28:00;27.00;;;14.60;;
83263;SDS011;73156;50.988;11.034;2024-01-30T09:30:26;29.33;;;14.27;;
83263;SDS011;73156;50.988;11.034;2024-01-30T09:32:51;28.65;;;15.70;;
83263;SDS011;73156;50.988;11.034;2024-01-30T09:35:16;28.00;;;14.40;;
83263;SDS011;73156;50.988;11.034;2024-01-30T09:37:41;28.77;;;15.40;;
83263;SDS011;73156;50.988;11.034;2024-01-30T09:40:07;23.37;;;13.50;;
83263;SDS011;73156;50.988;11.034;2024-01-30T09:42:35;27.98;;;14.85;;
83263;SDS011;73156;50.988;11.034;2024-01-30T09:45:02;25.60;;;14.77;;
83263;SDS011;73156;50.988;11.034;2024-01-30T09:47:30;29.02;;;16.15;;
83263;SDS011;73156;50.988;11.034;2024-01-30T09:49:56;28.58;;;15.13;;
83263;SDS011;73156;50.988;11.034;2024-01-30T09:52:23;27.65;;;15.18;;
83263;SDS011;73156;50.988;11.034;2024-01-30T09:54:49;29.63;;;15.53;;
83263;SDS011;73156;50.988;11.034;2024-01-30T09:57:17;28.48;;;15.15;;
83263;SDS011;73156;50.988;11.034;2024-01-30T09:59:42;27.30;;;14.57;;
83263;SDS011;73156;50.988;11.034;2024-01-30T10:02:09;27.23;;;14.05;;
83263;SDS011;73156;50.988;11.034;2024-01-30T10:04:35;25.88;;;13.75;;
83263;SDS011;73156;50.988;11.034;2024-01-30T10:07:01;24.60;;;13.80;;
83263;SDS011;73156;50.988;11.034;2024-01-30T10:09:27;27.70;;;14.35;;
83263;SDS011;73156;50.988;11.034;2024-01-30T10:11:52;23.07;;;13.37;;
83263;SDS011;73156;50.988;11.034;2024-01-30T10:14:18;29.23;;;15.02;;
83263;SDS011;73156;50.988;11.034;2024-01-30T10:16:45;27.40;;;14.73;;
83263;SDS011;73156;50.988;11.034;2024-01-30T10:19:11;30.25;;;15.77;;
83263;SDS011;73156;50.988;11.034;2024-01-30T10:21:36;27.13;;;14.50;;
83263;SDS011;73156;50.988;11.034;2024-01-30T10:24:02;27.95;;;14.25;;
83263;SDS011;73156;50.988;11.034;2024-01-30T10:26:27;28.58;;;15.32;;
83263;SDS011;73156;50.988;11.034;2024-01-30T10:28:54;25.75;;;14.73;;
83263;SDS011;73156;50.988;11.034;2024-01-30T10:31:19;30.95;;;16.92;;
83263;SDS011;73156;50.988;11.034;2024-01-30T10:33:44;27.23;;;14.63;;
83263;SDS011;73156;50.988;11.034;2024-01-30T10:36:10;29.27;;;15.35;;
83263;SDS011;73156;50.988;11.034;2024-01-30T10:38:38;26.63;;;13.63;;
83263;SDS011;73156;50.988;11.034;2024-01-30T10:41:07;25.80;;;14.45;;
83263;SDS011;73156;50.988;11.034;2024-01-30T10:43:38;26.25;;;14.90;;
83263;SDS011;73156;50.988;11.034;2024-01-30T10:46:14;26.58;;;14.27;;
83263;SDS011;73156;50.988;11.034;2024-01-30T10:48:43;24.73;;;14.75;;
83263;SDS011;73156;50.988;11.034;2024-01-30T10:51:13;28.88;;;14.63;;
83263;SDS011;73156;50.988;11.034;2024-01-30T10:53:39;27.67;;;14.63;;
83263;SDS011;73156;50.988;11.034;2024-01-30T10:56:04;26.50;;;14.20;;
83263;SDS011;73156;50.988;11.034;2024-01-30T10:58:31;26.45;;;14.57;;
83263;SDS011;73156;50.988;11.034;2024-01-30T11:00:56;28.73;;;15.20;;
83263;SDS011;73156;50.988;11.034;2024-01-30T11:03:23;26.40;;;14.65;;
83263;SDS011;73156;50.988;11.034;2024-01-30T11:05:49;26.52;;;15.13;;
83263;SDS011;73156;50.988;11.034;2024-01-30T11:08:24;23.30;;;14.23;;
83263;SDS011;73156;50.988;11.034;2024-01-30T11:10:54;24.98;;;14.13;;
83263;SDS011;73156;50.988;11.034;2024-01-30T11:13:20;26.90;;;14.73;;
83263;SDS011;73156;50.988;11.034;2024-01-30T11:15:47;24.93;;;14.40;;
83263;SDS011;73156;50.988;11.034;2024-01-30T11:18:22;29.10;;;15.63;;
83263;SDS011;73156;50.988;11.034;2024-01-30T11:20:48;23.65;;;14.40;;
83263;SDS011;73156;50.988;11.034;2024-01-30T11:23:13;27.35;;;15.00;;
83263;SDS011;73156;50.988;11.034;2024-01-30T11:25:39;26.55;;;14.63;;
83263;SDS011;73156;50.988;11.034;2024-01-30T11:28:04;23.88;;;13.93;;
83263;SDS011;73156;50.988;11.034;2024-01-30T11:30:32;27.25;;;14.18;;
83263;SDS011;73156;50.988;11.034;2024-01-30T11:33:05;25.45;;;14.90;;
83263;SDS011;73156;50.988;11.034;2024-01-30T11:35:32;26.25;;;15.13;;
83263;SDS011;73156;50.988;11.034;2024-01-30T11:37:59;28.13;;;15.57;;
83263;SDS011;73156;50.988;11.034;2024-01-30T11:40:26;28.20;;;15.40;;
83263;SDS011;73156;50.988;11.034;2024-01-30T11:42:53;26.15;;;14.57;;
83263;SDS011;73156;50.988;11.034;2024-01-30T11:45:19;26.77;;;14.48;;
83263;SDS011;73156;50.988;11.034;2024-01-30T11:47:45;26.77;;;14.73;;
83263;SDS011;73156;50.988;11.034;2024-01-30T11:50:10;24.52;;;14.10;;
83263;SDS011;73156;50.988;11.034;2024-01-30T11:52:36;25.83;;;13.95;;
83263;SDS011;73156;50.988;11.034;2024-01-30T11:55:01;26.75;;;15.23;;
83263;SDS011;73156;50.988;11.034;2024-01-30T11:57:27;31.55;;;15.63;;
83263;SDS011;73156;50.988;11.034;2024-01-30T11:59:53;28.05;;;15.55;;
83263;SDS011;73156;50.988;11.034;2024-01-30T12:02:18;22.63;;;12.37;;
83263;SDS011;73156;50.988;11.034;2024-01-30T12:04:43;22.25;;;12.23;;
83263;SDS011;73156;50.988;11.034;2024-01-30T12:07:09;22.65;;;12.15;;
83263;SDS011;73156;50.988;11.034;2024-01-30T12:09:34;28.20;;;13.52;;
83263;SDS011;73156;50.988;11.034;2024-01-30T12:12:00;21.77;;;12.77;;
83263;SDS011;73156;50.988;11.034;2024-01-30T12:14:25;23.80;;;13.33;;
83263;SDS011;73156;50.988;11.034;2024-01-30T12:16:51;25.23;;;13.55;;
83263;SDS011;73156;50.988;11.034;2024-01-30T12:19:26;24.40;;;11.97;;
83263;SDS011;73156;50.988;11.034;2024-01-30T12:21:55;23.63;;;13.00;;
83263;SDS011;73156;50.988;11.034;2024-01-30T12:24:21;23.25;;;13.25;;
83263;SDS011;73156;50.988;11.034;2024-01-30T12:26:47;22.08;;;12.55;;
83263;SDS011;73156;50.988;11.034;2024-01-30T12:29:14;24.27;;;12.90;;
83263;SDS011;73156;50.988;11.034;2024-01-30T12:31:41;22.98;;;12.77;;
83263;SDS011;73156;50.988;11.034;2024-01-30T12:34:07;23.70;;;12.35;;
83263;SDS011;73156;50.988;11.034;2024-01-30T12:36:32;23.70;;;13.07;;
83263;SDS011;73156;50.988;11.034;2024-01-30T12:38:59;23.45;;;13.15;;
83263;SDS011;73156;50.988;11.034;2024-01-30T12:41:24;22.38;;;12.90;;
83263;SDS011;73156;50.988;11.034;2024-01-30T12:43:53;22.30;;;12.30;;
83263;SDS011;73156;50.988;11.034;2024-01-30T12:46:19;23.45;;;11.93;;
83263;SDS011;73156;50.988;11.034;2024-01-30T12:48:44;21.70;;;12.03;;
83263;SDS011;73156;50.988;11.034;2024-01-30T12:51:09;23.23;;;13.10;;
83263;SDS011;73156;50.988;11.034;2024-01-30T12:53:34;23.60;;;12.73;;
83263;SDS011;73156;50.988;11.034;2024-01-30T12:56:00;23.63;;;13.07;;
83263;SDS011;73156;50.988;11.034;2024-01-30T12:58:25;21.80;;;12.93;;
83263;SDS011;73156;50.988;11.034;2024-01-30T13:00:50;26.20;;;13.80;;
83263;SDS011;73156;50.988;11.034;2024-01-30T13:03:15;23.27;;;13.50;;
83263;SDS011;73156;50.988;11.034;2024-01-30T13:05:41;22.60;;;13.13;;
83263;SDS011;73156;50.988;11.034;2024-01-30T13:08:06;23.90;;;12.67;;
83263;SDS011;73156;50.988;11.034;2024-01-30T13:10:31;20.50;;;13.00;;
83263;SDS011;73156;50.988;11.034;2024-01-30T13:12:56;23.37;;;13.27;;
83263;SDS011;73156;50.988;11.034;2024-01-30T13:15:22;23.77;;;12.83;;
83263;SDS011;73156;50.988;11.034;2024-01-30T13:17:47;24.90;;;13.57;;
83263;SDS011;73156;50.988;11.034;2024-01-30T13:20:13;22.02;;;13.18;;
83263;SDS011;73156;50.988;11.034;2024-01-30T13:22:44;21.85;;;12.80;;
83263;SDS011;73156;50.988;11.034;2024-01-30T13:25:09;21.30;;;12.93;;
83263;SDS011;73156;50.988;11.034;2024-01-30T13:27:35;22.73;;;12.77;;
83263;SDS011;73156;50.988;11.034;2024-01-30T13:30:01;21.63;;;12.15;;
83263;SDS011;73156;50.988;11.034;2024-01-30T13:32:27;21.23;;;13.30;;
83263;SDS011;73156;50.988;11.034;2024-01-30T13:34:52;23.37;;;13.70;;
83263;SDS011;73156;50.988;11.034;2024-01-30T13:37:17;24.63;;;14.47;;
83263;SDS011;73156;50.988;11.034;2024-01-30T13:39:43;22.42;;;12.68;;
83263;SDS011;73156;50.988;11.034;2024-01-30T13:42:08;24.97;;;12.70;;
83263;SDS011;73156;50.988;11.034;2024-01-30T13:44:34;22.57;;;13.10;;
83263;SDS011;73156;50.988;11.034;2024-01-30T13:47:00;24.13;;;13.52;;
83263;SDS011;73156;50.988;11.034;2024-01-30T13:49:25;24.17;;;14.40;;
83263;SDS011;73156;50.988;11.034;2024-01-30T13:51:51;19.88;;;12.00;;
83263;SDS011;73156;50.988;11.034;2024-01-30T13:54:16;20.60;;;11.57;;
83263;SDS011;73156;50.988;11.034;2024-01-30T13:56:41;24.87;;;13.60;;
83263;SDS011;73156;50.988;11.034;2024-01-30T13:59:06;22.60;;;13.20;;
83263;SDS011;73156;50.988;11.034;2024-01-30T14:01:32;24.70;;;12.60;;
83263;SDS011;73156;50.988;11.034;2024-01-30T14:03:57;24.08;;;13.40;;